Time;durP1;ratioP1;P1;durP2;ratioP2;P2;SDS_P1;SDS_P2;PMS_P1;PMS_P2;Temp;Humidity;BMP_temperature;BMP_pressure;BME280_temperature;BME280_humidity;BME280_pressure;Samples;Min_cycle;Max_cycle;Signal;HPM_P1;HPM_P2
2023/04/06 00:00:43;;;;;;;9.93;6.20;;;;;;;3.22;69.99;98813.13;5134318;27;20047;-91
2023/04/06 00:03:13;;;;;;;10.23;5.60;;;;;;;3.13;70.22;98807.84;5135863;27;20180;-94
2023/04/06 00:05:39;;;;;;;10.43;5.30;;;;;;;3.07;70.13;98790.28;5133097;27;20031;-92
2023/04/06 00:08:05;;;;;;;10.68;6.50;;;;;;;2.99;70.48;98786.75;5132900;27;20129;-92
2023/04/06 00:10:31;;;;;;;9.85;5.60;;;;;;;3.00;70.33;98786.78;5134389;27;20091;-93
2023/04/06 00:12:58;;;;;;;11.80;6.47;;;;;;;2.92;70.74;98785.84;5135115;27;20073;-90
2023/04/06 00:15:24;;;;;;;8.80;5.63;;;;;;;3.02;69.97;98789.41;5133261;27;20038;-91
2023/04/06 00:17:50;;;;;;;9.85;5.57;;;;;;;2.98;69.78;98780.63;5135031;27;20031;-93
2023/04/06 00:20:17;;;;;;;9.57;6.38;;;;;;;3.07;69.62;98800.81;5135260;27;20038;-93
2023/04/06 00:22:44;;;;;;;10.30;5.40;;;;;;;3.13;69.32;98805.22;5133021;27;20515;-92
2023/04/06 00:25:10;;;;;;;9.77;6.07;;;;;;;2.94;69.75;98775.38;5135187;27;20071;-91
2023/04/06 00:27:37;;;;;;;11.35;6.35;;;;;;;2.93;69.97;98797.22;5134958;27;20038;-93
2023/04/06 00:30:03;;;;;;;10.32;6.03;;;;;;;2.90;69.48;98777.09;5133260;27;20039;-92
2023/04/06 00:32:29;;;;;;;11.77;5.95;;;;;;;3.08;69.45;98810.47;5135085;27;20042;-91
2023/04/06 00:34:55;;;;;;;11.63;5.93;;;;;;;2.87;69.15;98769.22;5134662;27;20034;-91
2023/04/06 00:37:22;;;;;;;9.80;6.30;;;;;;;2.93;68.96;98791.97;5135623;27;20046;-93
2023/04/06 00:39:51;;;;;;;9.88;5.50;;;;;;;2.82;69.64;98798.09;5138394;27;20031;-91
2023/04/06 00:42:24;;;;;;;9.18;6.18;;;;;;;2.90;69.24;98813.00;5135360;27;20192;-91
2023/04/06 00:44:50;;;;;;;7.82;5.22;;;;;;;2.80;68.94;98794.56;5134255;27;20042;-93
2023/04/06 00:47:16;;;;;;;8.95;5.38;;;;;;;2.73;68.10;98778.78;5132486;27;20031;-92
2023/04/06 00:49:42;;;;;;;9.98;5.30;;;;;;;2.93;67.97;98810.38;5133958;27;20035;-92
2023/04/06 00:52:08;;;;;;;9.05;5.05;;;;;;;2.76;68.03;98789.31;5138687;27;20035;-91
2023/04/06 00:54:35;;;;;;;10.18;5.38;;;;;;;2.83;67.18;98791.09;5138503;27;20038;-92
2023/04/06 00:57:01;;;;;;;8.55;5.80;;;;;;;2.90;66.55;98797.22;5137761;27;20148;-91
2023/04/06 00:59:28;;;;;;;9.70;5.63;;;;;;;2.92;66.78;98812.13;5139643;27;20137;-93
2023/04/06 01:01:54;;;;;;;9.38;4.90;;;;;;;2.91;67.05;98809.47;5135764;27;20039;-91
2023/04/06 01:04:22;;;;;;;10.45;5.80;;;;;;;2.87;66.09;98813.88;5138659;27;20399;-90
2023/04/06 01:06:48;;;;;;;7.80;5.28;;;;;;;2.81;66.23;98798.94;5137141;27;20491;-93
2023/04/06 01:09:14;;;;;;;7.78;5.35;;;;;;;2.64;65.63;98775.22;5136527;27;20070;-92
2023/04/06 01:11:42;;;;;;;9.38;5.00;;;;;;;2.96;64.62;98811.25;5138303;27;20538;-94
2023/04/06 01:14:08;;;;;;;7.78;4.72;;;;;;;2.98;63.69;98803.41;5138271;27;20073;-92
2023/04/06 01:16:34;;;;;;;8.77;4.43;;;;;;;2.83;62.77;98770.06;5137248;27;20050;-90
2023/04/06 01:19:00;;;;;;;7.60;4.18;;;;;;;2.90;62.35;98779.72;5138636;27;20432;-91
2023/04/06 01:21:26;;;;;;;10.68;4.95;;;;;;;2.96;61.93;98792.00;5139237;27;20046;-91
2023/04/06 01:23:54;;;;;;;7.50;4.90;;;;;;;2.99;61.55;98794.63;5138686;27;20460;-91
2023/04/06 01:26:19;;;;;;;6.80;4.60;;;;;;;3.08;61.31;98803.44;5136979;27;20031;-92
2023/04/06 01:28:45;;;;;;;9.15;4.88;;;;;;;3.03;61.24;98805.16;5138975;27;20061;-94
2023/04/06 01:31:11;;;;;;;8.10;4.65;;;;;;;3.02;61.24;98798.16;5136886;27;20071;-91
2023/04/06 01:33:37;;;;;;;8.50;4.78;;;;;;;3.06;61.04;98797.31;5138194;27;20038;-91
2023/04/06 01:36:03;;;;;;;7.22;4.32;;;;;;;3.00;61.34;98799.91;5137771;27;20543;-93
2023/04/06 01:38:29;;;;;;;6.75;4.50;;;;;;;2.86;60.27;98772.69;5137697;27;20039;-92
2023/04/06 01:40:56;;;;;;;6.97;4.20;;;;;;;2.96;59.90;98790.25;5137987;27;20035;-92
2023/04/06 01:43:23;;;;;;;7.07;3.88;;;;;;;2.98;59.69;98791.13;5138011;27;20039;-91
2023/04/06 01:45:48;;;;;;;5.60;3.88;;;;;;;3.02;59.98;98803.41;5137121;27;20491;-90
2023/04/06 01:48:14;;;;;;;6.32;3.83;;;;;;;2.84;60.61;98791.09;5138629;27;20042;-92
2023/04/06 01:50:41;;;;;;;6.25;4.15;;;;;;;2.90;60.68;98803.34;5138642;27;20130;-92
2023/04/06 01:53:06;;;;;;;8.23;4.07;;;;;;;2.78;60.26;98783.19;5137854;27;20365;-92
2023/04/06 01:55:32;;;;;;;9.73;4.00;;;;;;;2.99;60.66;98819.19;5137953;27;20034;-92
2023/04/06 01:58:00;;;;;;;7.00;4.47;;;;;;;2.96;60.71;98810.41;5137905;27;20047;-92
2023/04/06 02:00:25;;;;;;;10.48;4.80;;;;;;;2.94;60.77;98812.13;5136360;27;20047;-92
2023/04/06 02:02:51;;;;;;;7.88;4.80;;;;;;;2.90;60.86;98805.13;5136766;27;20154;-92
2023/04/06 02:05:17;;;;;;;8.50;4.78;;;;;;;2.96;60.18;98807.78;5136754;27;20042;-93
2023/04/06 02:07:43;;;;;;;9.75;4.82;;;;;;;2.93;59.92;98797.22;5138870;27;20188;-91
2023/04/06 02:10:13;;;;;;;7.05;4.00;;;;;;;3.00;59.77;98805.16;5137097;27;20058;-92
2023/04/06 02:12:39;;;;;;;7.95;4.70;;;;;;;3.00;59.79;98804.28;5138141;27;20043;-91
2023/04/06 02:15:07;;;;;;;7.72;4.28;;;;;;;2.91;60.95;98802.50;5136007;27;20035;-91
2023/04/06 02:17:33;;;;;;;8.00;4.63;;;;;;;2.95;60.49;98816.50;5136558;27;20035;-93
2023/04/06 02:19:59;;;;;;;11.15;4.75;;;;;;;2.79;60.46;98795.44;5137650;27;20035;-92
2023/04/06 02:22:25;;;;;;;7.15;4.30;;;;;;;2.68;61.23;98787.50;5138081;27;20130;-93
2023/04/06 02:24:51;;;;;;;7.88;4.28;;;;;;;2.68;62.32;98818.13;5137966;27;20047;-91
2023/04/06 02:27:16;;;;;;;7.10;4.28;;;;;;;2.76;61.88;98824.31;5135770;27;20126;-92
2023/04/06 02:29:42;;;;;;;10.55;4.38;;;;;;;2.72;61.93;98813.78;5136918;27;20487;-91
2023/04/06 02:32:09;;;;;;;8.95;4.50;;;;;;;2.67;62.02;98798.88;5136270;27;20062;-92
2023/04/06 02:34:35;;;;;;;7.72;4.78;;;;;;;2.75;62.74;98829.56;5137796;27;20051;-91
2023/04/06 02:37:01;;;;;;;7.32;4.93;;;;;;;2.69;62.95;98835.66;5137762;27;20042;-92
2023/04/06 02:39:27;;;;;;;8.38;4.75;;;;;;;2.83;62.16;98826.09;5137743;27;20045;-92
2023/04/06 02:41:53;;;;;;;9.25;4.90;;;;;;;3.05;60.72;98813.91;5136136;27;20084;-92
2023/04/06 02:44:19;;;;;;;8.18;4.60;;;;;;;3.11;59.61;98807.81;5136530;27;20046;-92
2023/04/06 02:46:45;;;;;;;7.82;4.35;;;;;;;3.34;59.61;98825.41;5135433;27;20063;-91
2023/04/06 02:49:13;;;;;;;9.20;4.57;;;;;;;3.38;59.75;98824.53;5136047;27;20093;-91
2023/04/06 02:51:38;;;;;;;9.63;4.95;;;;;;;3.27;59.36;98807.00;5135872;27;20461;-92
2023/04/06 02:54:04;;;;;;;6.50;4.35;;;;;;;3.28;59.83;98821.03;5136916;27;20058;-92
2023/04/06 02:56:30;;;;;;;7.13;4.40;;;;;;;3.16;60.42;98807.84;5135516;27;20030;-91
2023/04/06 02:58:56;;;;;;;8.52;4.70;;;;;;;3.07;60.78;98814.81;5136556;27;20129;-93
2023/04/06 03:01:22;;;;;;;9.85;5.07;;;;;;;2.91;61.15;98801.59;5135554;27;20103;-92
2023/04/06 03:03:48;;;;;;;7.72;4.60;;;;;;;2.83;61.51;98799.81;5137740;27;20031;-91
2023/04/06 03:06:15;;;;;;;7.43;4.75;;;;;;;2.87;61.42;98808.59;5136705;27;20035;-93
2023/04/06 03:08:41;;;;;;;8.98;5.38;;;;;;;2.96;61.34;98819.16;5137570;27;20041;-92
2023/04/06 03:11:07;;;;;;;6.65;4.32;;;;;;;2.94;61.79;98823.50;5136351;27;20037;-93
2023/04/06 03:13:33;;;;;;;8.05;4.53;;;;;;;2.78;62.01;98793.69;5137279;27;20061;-92
2023/04/06 03:15:58;;;;;;;9.15;4.95;;;;;;;2.89;61.84;98822.63;5135251;27;20208;-92
2023/04/06 03:18:25;;;;;;;7.63;4.40;;;;;;;2.80;62.40;98806.84;5136342;27;20078;-93
2023/04/06 03:20:53;;;;;;;6.68;4.32;;;;;;;2.85;62.00;98810.34;5134478;27;20376;-91
2023/04/06 03:23:21;;;;;;;7.90;4.50;;;;;;;2.70;62.16;98811.16;5136234;27;20630;-92
2023/04/06 03:25:46;;;;;;;7.45;4.30;;;;;;;2.54;63.36;98799.69;5135374;27;20038;-93
2023/04/06 03:28:12;;;;;;;6.60;4.28;;;;;;;2.33;64.67;98807.44;5136526;27;20035;-92
2023/04/06 03:30:38;;;;;;;7.68;4.72;;;;;;;2.16;66.22;98818.69;5132527;27;20050;-92
2023/04/06 03:33:04;;;;;;;8.65;5.35;;;;;;;2.16;65.71;98825.69;5136805;27;20045;-92
2023/04/06 03:35:30;;;;;;;8.45;4.25;;;;;;;2.37;64.70;98822.34;5135549;27;20074;-92
2023/04/06 03:37:56;;;;;;;7.50;5.03;;;;;;;2.21;65.47;98806.50;5136726;27;20532;-92
2023/04/06 03:40:23;;;;;;;7.43;4.45;;;;;;;2.17;66.74;98837.91;5137211;27;20038;-92
2023/04/06 03:42:49;;;;;;;9.23;4.85;;;;;;;1.92;67.67;98836.88;5135485;27;20063;-93
2023/04/06 03:45:15;;;;;;;6.70;4.60;;;;;;;1.85;68.28;98838.56;5136286;27;20391;-91
2023/04/06 03:47:41;;;;;;;8.88;4.85;;;;;;;1.96;67.43;98834.28;5137023;27;20035;-93
2023/04/06 03:50:08;;;;;;;7.68;4.40;;;;;;;1.99;66.42;98799.31;5134247;27;20555;-91
2023/04/06 03:52:34;;;;;;;7.18;4.00;;;;;;;2.04;66.42;98819.50;5136899;27;20054;-91
2023/04/06 03:55:00;;;;;;;7.75;4.88;;;;;;;1.76;68.57;98807.88;5137303;27;20047;-92
2023/04/06 03:57:27;;;;;;;6.95;4.38;;;;;;;1.68;68.98;98830.53;5136015;27;20495;-92
2023/04/06 03:59:53;;;;;;;7.43;4.55;;;;;;;1.64;68.29;98818.25;5136582;27;20077;-93
2023/04/06 04:02:19;;;;;;;8.15;4.40;;;;;;;1.70;69.32;98823.56;5134960;27;20058;-91
2023/04/06 04:04:45;;;;;;;8.57;4.90;;;;;;;1.91;68.94;98843.84;5136015;27;20495;-92
2023/04/06 04:07:11;;;;;;;10.77;4.90;;;;;;;1.73;69.27;98823.56;5136551;27;20038;-92
2023/04/06 04:09:37;;;;;;;7.32;4.63;;;;;;;1.49;70.25;98813.75;5135601;27;20423;-92
2023/04/06 04:12:03;;;;;;;8.52;4.95;;;;;;;1.57;70.61;98851.41;5134303;27;20087;-92
2023/04/06 04:14:31;;;;;;;7.00;4.53;;;;;;;1.60;71.09;98863.66;5136527;27;20467;-92
2023/04/06 04:16:57;;;;;;;8.43;4.68;;;;;;;1.44;71.12;98850.38;5132789;27;20492;-93
2023/04/06 04:19:23;;;;;;;7.00;5.00;;;;;;;1.53;70.95;98861.84;5134624;27;20069;-92
2023/04/06 04:21:49;;;;;;;6.90;4.30;;;;;;;1.42;71.80;98859.09;5136353;27;20047;-92
2023/04/06 04:24:15;;;;;;;6.95;4.57;;;;;;;1.17;73.14;98827.41;5135261;27;20496;-94
2023/04/06 04:26:40;;;;;;;6.82;4.10;;;;;;;1.30;72.46;98852.00;5135782;27;20087;-92
2023/04/06 04:29:06;;;;;;;6.85;4.55;;;;;;;1.28;71.87;98837.09;5137310;27;20042;-93
2023/04/06 04:31:34;;;;;;;7.95;4.80;;;;;;;1.66;71.00;98860.22;5134705;27;20046;-93
2023/04/06 04:34:00;;;;;;;6.80;4.28;;;;;;;1.70;69.61;98836.66;5135877;27;20070;-92
2023/04/06 04:36:27;;;;;;;6.97;4.15;;;;;;;1.79;69.88;98852.47;5119830;27;20038;-92
2023/04/06 04:38:53;;;;;;;11.18;4.82;;;;;;;1.55;70.88;98837.41;5135974;27;20126;-93
2023/04/06 04:41:19;;;;;;;10.82;5.10;;;;;;;1.36;71.12;98831.06;5136482;27;20027;-92
2023/04/06 04:43:45;;;;;;;8.00;5.55;;;;;;;1.02;73.68;98835.94;5136131;27;20133;-94
2023/04/06 04:46:11;;;;;;;12.10;5.25;;;;;;;0.94;73.81;98849.81;5135703;27;20042;-93
2023/04/06 04:48:38;;;;;;;7.75;4.95;;;;;;;0.98;74.50;98873.44;5136991;27;20038;-92
2023/04/06 04:51:05;;;;;;;10.75;5.72;;;;;;;0.78;74.84;98859.19;5136099;27;20495;-92
2023/04/06 04:53:31;;;;;;;7.82;5.10;;;;;;;0.96;73.18;98840.25;5136179;27;20110;-92
2023/04/06 04:55:57;;;;;;;10.63;5.03;;;;;;;0.80;75.36;98852.22;5136080;27;20122;-92
2023/04/06 04:58:23;;;;;;;9.13;5.22;;;;;;;1.09;73.84;98850.00;5135225;27;20035;-93
2023/04/06 05:00:49;;;;;;;9.18;5.22;;;;;;;2.13;68.35;98847.53;5133945;27;20129;-93
2023/04/06 05:03:20;;;;;;;9.48;4.70;;;;;;;2.30;67.94;98847.66;5135742;27;20111;-94
2023/04/06 05:05:47;;;;;;;6.88;4.65;;;;;;;2.16;68.67;98842.28;5136201;27;20035;-92
2023/04/06 05:08:13;;;;;;;7.60;4.80;;;;;;;2.14;69.09;98856.28;5135617;27;20091;-92
2023/04/06 05:10:39;;;;;;;7.57;4.65;;;;;;;2.12;68.87;98848.38;5136336;27;20039;-91
2023/04/06 05:13:05;;;;;;;9.00;4.95;;;;;;;2.37;66.92;98843.34;5135629;27;20042;-92
2023/04/06 05:15:31;;;;;;;6.80;4.50;;;;;;;2.58;66.96;98850.44;5134712;27;20038;-92
2023/04/06 05:17:57;;;;;;;7.55;4.80;;;;;;;2.56;66.79;98845.22;5135826;27;20039;-92
2023/04/06 05:20:23;;;;;;;7.03;4.78;;;;;;;2.59;67.65;98863.59;5135698;27;20039;-93
2023/04/06 05:22:50;;;;;;;7.28;4.25;;;;;;;2.24;68.62;98830.13;5137077;27;20051;-92
2023/04/06 05:25:16;;;;;;;8.98;4.68;;;;;;;2.43;68.32;98870.50;5135834;27;20039;-91
2023/04/06 05:27:42;;;;;;;9.50;4.97;;;;;;;2.11;70.27;98851.03;5135100;27;21100;-93
2023/04/06 05:30:08;;;;;;;8.13;4.95;;;;;;;2.07;71.28;98850.09;5134745;27;20071;-92
2023/04/06 05:32:35;;;;;;;11.98;4.93;;;;;;;1.96;72.19;98852.63;5135460;27;20030;-92
2023/04/06 05:35:00;;;;;;;9.15;4.78;;;;;;;1.88;72.81;98850.81;5134349;27;20047;-92
2023/04/06 05:37:26;;;;;;;7.63;4.90;;;;;;;2.06;72.84;98879.84;5141820;27;20452;-92
2023/04/06 05:39:54;;;;;;;8.65;4.80;;;;;;;2.21;71.89;98872.09;5139773;27;20038;-93
2023/04/06 05:42:20;;;;;;;8.68;5.03;;;;;;;2.18;71.61;98844.94;5138776;27;20134;-92
2023/04/06 05:44:45;;;;;;;7.22;4.97;;;;;;;2.32;71.93;98860.78;5139173;27;20562;-92
2023/04/06 05:47:11;;;;;;;7.80;4.65;;;;;;;2.34;72.99;98859.03;5138718;27;20043;-92
2023/04/06 05:49:37;;;;;;;9.38;5.03;;;;;;;2.37;72.96;98853.84;5140133;27;20133;-92
2023/04/06 05:52:04;;;;;;;7.15;4.68;;;;;;;2.57;70.03;98862.72;5139164;27;20043;-92
2023/04/06 05:54:29;;;;;;;6.97;4.72;;;;;;;3.06;67.61;98864.75;5139463;27;20041;-93
2023/04/06 05:56:57;;;;;;;7.88;4.85;;;;;;;3.14;68.29;98854.25;5140236;27;20034;-95
2023/04/06 05:59:23;;;;;;;8.32;4.63;;;;;;;3.27;68.17;98858.66;5139021;27;20096;-94
2023/04/06 06:01:49;;;;;;;5.82;4.30;;;;;;;3.36;66.76;98858.72;5138863;27;20116;-93
2023/04/06 06:04:15;;;;;;;7.20;4.50;;;;;;;3.71;65.56;98871.09;5138417;27;20043;-94
2023/04/06 06:06:41;;;;;;;8.07;4.60;;;;;;;4.02;63.50;98889.53;5138203;27;20031;-92
2023/04/06 06:09:07;;;;;;;8.38;4.57;;;;;;;4.14;62.31;98878.13;5138852;27;20057;-94
2023/04/06 06:11:32;;;;;;;7.15;4.75;;;;;;;4.35;62.16;98893.94;5135148;27;20047;-94
2023/04/06 06:14:00;;;;;;;7.38;4.50;;;;;;;4.46;60.90;98880.75;5138785;27;20039;-95
2023/04/06 06:16:25;;;;;;;7.75;4.70;;;;;;;4.57;61.11;98889.53;5136816;27;20083;-93
2023/04/06 06:18:51;;;;;;;7.43;4.22;;;;;;;4.76;60.68;98886.88;5138115;27;20042;-93
2023/04/06 06:21:17;;;;;;;6.10;4.20;;;;;;;4.81;60.95;98879.84;5137820;27;20482;-93
2023/04/06 06:23:43;;;;;;;8.77;4.65;;;;;;;4.90;60.28;98871.91;5140206;27;20050;-94
2023/04/06 06:26:09;;;;;;;9.52;4.70;;;;;;;5.05;59.82;98861.34;5140959;27;20449;-93
2023/04/06 06:28:35;;;;;;;6.45;4.60;;;;;;;5.21;60.31;98861.28;5139826;27;20041;-94
2023/04/06 06:31:02;;;;;;;7.00;4.55;;;;;;;5.46;57.93;98881.34;5140076;27;20054;-94
2023/04/06 06:33:28;;;;;;;9.93;4.65;;;;;;;5.55;57.28;98881.34;5139061;27;20046;-93
2023/04/06 06:35:54;;;;;;;6.57;4.35;;;;;;;5.65;57.90;98870.72;5141015;27;20042;-95
2023/04/06 06:38:20;;;;;;;11.00;4.10;;;;;;;5.87;56.11;98887.31;5140701;27;20047;-94
2023/04/06 06:40:46;;;;;;;6.72;4.78;;;;;;;5.84;55.93;98880.28;5139650;27;20042;-92
2023/04/06 06:43:11;;;;;;;7.25;4.68;;;;;;;5.92;54.33;98861.75;5139334;27;20423;-95
2023/04/06 06:45:37;;;;;;;8.13;4.25;;;;;;;6.27;54.91;98902.91;5136926;27;20069;-93
2023/04/06 06:48:05;;;;;;;6.85;4.35;;;;;;;6.22;55.17;98881.78;5137048;27;20035;-93
2023/04/06 06:50:31;;;;;;;8.70;4.60;;;;;;;6.31;52.98;98880.84;5137363;27;20047;-94
2023/04/06 06:52:56;;;;;;;9.32;4.68;;;;;;;6.55;53.15;98893.00;5138442;27;20062;-93
2023/04/06 06:55:22;;;;;;;7.40;4.25;;;;;;;6.60;52.63;98887.66;5138740;27;20042;-93
2023/04/06 06:57:48;;;;;;;9.40;4.80;;;;;;;6.48;53.14;98899.19;5138599;27;20042;-94
2023/04/06 07:00:14;;;;;;;8.93;4.97;;;;;;;5.86;53.96;98849.47;5136003;27;20391;-92
2023/04/06 07:02:41;;;;;;;7.55;4.85;;;;;;;6.19;54.61;98860.72;5138428;27;20049;-93
2023/04/06 07:05:08;;;;;;;7.65;5.07;;;;;;;6.67;53.70;98890.22;5139090;27;20039;-93
2023/04/06 07:07:34;;;;;;;7.57;5.18;;;;;;;6.73;52.99;98868.16;5137632;27;20039;-93
2023/04/06 07:10:00;;;;;;;8.07;5.03;;;;;;;6.64;52.61;98862.97;5138695;27;20500;-92
2023/04/06 07:12:26;;;;;;;6.65;4.50;;;;;;;6.82;53.02;98867.19;5136231;27;20492;-95
2023/04/06 07:14:53;;;;;;;9.10;5.47;;;;;;;7.05;51.88;98873.09;5138259;27;20056;-93
2023/04/06 07:17:18;;;;;;;11.20;5.25;;;;;;;7.17;51.62;98877.38;5136244;27;20047;-93
2023/04/06 07:19:45;;;;;;;8.15;5.05;;;;;;;7.32;50.94;98884.25;5138561;27;20046;-94
2023/04/06 07:22:12;;;;;;;9.40;4.78;;;;;;;7.47;50.62;98894.63;5138020;27;20086;-94
2023/04/06 07:24:38;;;;;;;6.75;4.50;;;;;;;7.30;50.08;98875.44;5139152;27;20058;-94
2023/04/06 07:27:04;;;;;;;7.53;5.00;;;;;;;7.28;50.86;98874.59;5138161;27;20447;-95
2023/04/06 07:29:30;;;;;;;7.75;5.00;;;;;;;7.29;51.23;98892.22;5137503;27;20130;-92
2023/04/06 07:31:56;;;;;;;8.90;5.35;;;;;;;7.21;51.08;98873.78;5135431;27;20129;-93
2023/04/06 07:34:22;;;;;;;8.68;4.90;;;;;;;7.35;50.69;98876.25;5137018;27;20046;-92
2023/04/06 07:36:48;;;;;;;11.65;4.88;;;;;;;7.45;50.07;98867.31;5136682;27;20507;-93
2023/04/06 07:39:15;;;;;;;8.18;4.70;;;;;;;7.97;49.64;98889.56;5137126;27;20052;-92
2023/04/06 07:41:41;;;;;;;9.27;4.47;;;;;;;7.86;50.78;98887.06;5135815;27;20035;-92
2023/04/06 07:44:07;;;;;;;7.30;4.70;;;;;;;7.82;48.83;98862.38;5145056;27;20056;-92
2023/04/06 07:46:33;;;;;;;8.50;4.97;;;;;;;8.15;49.24;98877.81;5149272;27;20495;-93
2023/04/06 07:49:00;;;;;;;9.23;5.38;;;;;;;7.78;49.26;98865.97;5138071;27;20039;-94
2023/04/06 07:51:26;;;;;;;8.93;4.88;;;;;;;8.13;50.04;98890.19;5138544;27;20399;-92
2023/04/06 07:53:52;;;;;;;8.07;4.90;;;;;;;8.18;49.20;98876.00;5137438;27;20038;-93
2023/04/06 07:56:21;;;;;;;6.90;4.38;;;;;;;8.47;47.62;98876.44;5137850;27;20037;-93
2023/04/06 07:58:47;;;;;;;7.33;4.63;;;;;;;8.31;49.39;98887.25;5138971;27;20105;-91
2023/04/06 08:01:13;;;;;;;7.35;5.07;;;;;;;8.28;48.31;98897.91;5143650;27;20066;-93
2023/04/06 08:03:40;;;;;;;7.65;4.80;;;;;;;7.85;50.16;98895.00;5139094;27;20035;-93
2023/04/06 08:06:05;;;;;;;7.57;4.60;;;;;;;8.18;48.36;98867.16;5137502;27;20106;-93
2023/04/06 08:08:31;;;;;;;6.80;4.57;;;;;;;8.04;49.01;98875.31;5138233;27;20151;-94
2023/04/06 08:10:59;;;;;;;6.45;4.50;;;;;;;8.19;49.34;98885.66;5138859;27;20487;-94
2023/04/06 08:13:27;;;;;;;6.40;4.70;;;;;;;8.56;48.66;98860.38;5137858;27;20046;-92
2023/04/06 08:15:53;;;;;;;6.90;4.35;;;;;;;9.01;48.06;98847.19;5138221;27;20133;-95
2023/04/06 08:18:19;;;;;;;10.13;4.65;;;;;;;8.69;47.19;98853.09;5138363;27;20125;-94
2023/04/06 08:20:45;;;;;;;8.02;4.70;;;;;;;8.50;48.42;98879.94;5136186;27;20039;-94
2023/04/06 08:23:11;;;;;;;7.40;5.10;;;;;;;8.38;48.31;98866.84;5138284;27;20042;-94
2023/04/06 08:25:37;;;;;;;7.85;4.90;;;;;;;8.72;48.09;98875.13;5137409;27;20446;-94
2023/04/06 08:28:02;;;;;;;10.30;5.28;;;;;;;9.12;47.45;98898.25;5137022;27;20045;-95
2023/04/06 08:30:30;;;;;;;7.82;5.03;;;;;;;8.61;47.50;98854.09;5136887;27;20038;-91
2023/04/06 08:32:56;;;;;;;10.10;5.43;;;;;;;8.73;48.21;98868.91;5135440;27;20043;-93
2023/04/06 08:35:22;;;;;;;8.07;5.50;;;;;;;9.39;47.17;98880.00;5137570;27;20057;-93
2023/04/06 08:37:48;;;;;;;8.40;5.78;;;;;;;9.65;46.23;98874.19;5137579;27;20042;-94
2023/04/06 08:40:14;;;;;;;6.97;5.43;;;;;;;9.19;47.03;98865.38;5137093;27;20513;-94
2023/04/06 08:42:48;;;;;;;10.30;5.43;;;;;;;9.15;47.34;98892.91;5136608;27;20043;-93
2023/04/06 08:45:16;;;;;;;6.78;4.95;;;;;;;8.95;48.15;98889.72;5136879;27;20491;-94
2023/04/06 08:47:43;;;;;;;8.00;5.50;;;;;;;9.51;46.55;98890.38;5137035;27;20035;-96
2023/04/06 08:50:11;;;;;;;8.90;5.07;;;;;;;9.71;47.00;98889.09;5141409;27;20039;-94
2023/04/06 08:52:39;;;;;;;7.30;4.85;;;;;;;9.96;46.01;98878.81;5138780;27;20065;-91
2023/04/06 08:55:05;;;;;;;9.10;4.60;;;;;;;9.80;44.95;98879.16;5138882;27;20043;-94
2023/04/06 08:57:32;;;;;;;8.15;4.43;;;;;;;10.12;44.65;98868.69;5136138;27;20059;-93
2023/04/06 09:00:01;;;;;;;6.45;4.30;;;;;;;10.29;43.47;98871.84;5137375;27;20058;-94
2023/04/06 09:02:27;;;;;;;5.25;3.60;;;;;;;10.22;44.44;98879.06;5135423;27;20149;-94
2023/04/06 09:04:54;;;;;;;7.38;4.40;;;;;;;9.61;44.77;98862.75;5138301;27;20051;-92
2023/04/06 09:07:21;;;;;;;6.55;4.15;;;;;;;10.37;43.77;98880.53;5139237;27;20039;-94
2023/04/06 09:09:48;;;;;;;5.50;3.90;;;;;;;10.60;44.43;98860.44;5138783;27;20035;-94
2023/04/06 09:12:22;;;;;;;7.20;4.10;;;;;;;10.90;42.65;98885.38;5136330;27;20087;-95
2023/04/06 09:14:48;;;;;;;8.10;4.30;;;;;;;10.84;41.78;98873.13;5144324;27;20039;-94
2023/04/06 09:17:20;;;;;;;8.05;4.20;;;;;;;10.83;41.81;98875.81;5142601;27;20031;-94
2023/04/06 09:19:47;;;;;;;7.03;4.50;;;;;;;10.96;41.17;98879.03;5137337;27;20118;-95
2023/04/06 09:22:14;;;;;;;7.35;3.92;;;;;;;10.69;40.20;98878.81;5141719;27;20047;-93
2023/04/06 09:24:43;;;;;;;6.18;3.70;;;;;;;10.68;41.22;98861.13;5141666;27;20042;-93
2023/04/06 09:27:09;;;;;;;9.38;4.90;;;;;;;11.01;41.87;98877.97;5141067;27;20043;-93
2023/04/06 09:29:37;;;;;;;5.95;4.10;;;;;;;10.88;41.25;98856.13;5141204;27;20042;-93
2023/04/06 09:32:04;;;;;;;6.00;4.35;;;;;;;10.08;43.93;98878.50;5139570;27;20418;-95
2023/04/06 09:34:30;;;;;;;5.75;3.92;;;;;;;10.48;41.95;98882.91;5140221;27;20055;-94
2023/04/06 09:36:56;;;;;;;6.25;3.78;;;;;;;10.77;41.65;98850.22;5139769;27;20487;-94
2023/04/06 09:39:24;;;;;;;7.03;4.00;;;;;;;10.42;43.50;98852.03;5140730;27;20035;-94
2023/04/06 09:41:51;;;;;;;7.53;4.97;;;;;;;10.85;42.11;98858.91;5140584;27;20447;-94
2023/04/06 09:44:17;;;;;;;5.90;4.38;;;;;;;11.18;40.58;98866.00;5141756;27;20077;-93
2023/04/06 09:46:44;;;;;;;6.75;4.25;;;;;;;11.37;41.12;98867.22;5140178;27;20447;-94
2023/04/06 09:49:11;;;;;;;6.30;4.05;;;;;;;11.33;40.72;98851.38;5140573;27;20525;-94
2023/04/06 09:51:39;;;;;;;7.75;4.25;;;;;;;11.64;39.87;98868.19;5138192;27;20031;-95
2023/04/06 09:54:07;;;;;;;5.95;3.97;;;;;;;11.42;40.51;98851.09;5140052;27;20349;-92
2023/04/06 09:56:45;;;;;;;6.90;3.97;;;;;;;11.48;40.41;98866.91;5139672;27;20421;-94
2023/04/06 09:59:14;;;;;;;6.18;3.97;;;;;;;11.48;40.23;98850.94;5139930;27;20487;-94
2023/04/06 10:01:40;;;;;;;6.13;4.22;;;;;;;11.70;40.14;98852.03;5139205;27;20050;-94
2023/04/06 10:04:21;;;;;;;6.93;4.00;;;;;;;11.56;41.72;98870.22;5139096;27;20034;-93
2023/04/06 10:06:52;;;;;;;7.88;4.72;;;;;;;11.69;40.02;98847.63;5139811;27;20514;-92
2023/04/06 10:09:20;;;;;;;5.35;3.97;;;;;;;11.97;39.54;98864.56;5139217;27;20128;-92
2023/04/06 10:11:48;;;;;;;6.18;4.25;;;;;;;12.08;39.62;98855.34;5139662;27;20042;-94
2023/04/06 10:14:15;;;;;;;7.90;4.30;;;;;;;12.26;39.61;98858.34;5139039;27;20129;-92
2023/04/06 10:16:42;;;;;;;6.28;3.83;;;;;;;12.32;38.39;98851.00;5137486;27;20122;-94
2023/04/06 10:19:13;;;;;;;6.45;4.03;;;;;;;12.00;39.32;98848.50;5140588;27;20863;-92
2023/04/06 10:21:42;;;;;;;7.22;4.60;;;;;;;11.81;39.37;98840.19;5138870;27;20130;-93
2023/04/06 10:24:10;;;;;;;;;;;;;;;12.13;39.35;98858.72;5138290;27;20376;-93
2023/04/06 10:26:36;;;;;;;7.22;4.38;;;;;;;12.20;41.11;98856.72;5137453;27;19990;-93
2023/04/06 10:29:05;;;;;;;7.00;4.38;;;;;;;11.61;41.85;98833.66;5141461;27;20038;-96
2023/04/06 10:31:31;;;;;;;7.20;4.00;;;;;;;11.87;40.12;98850.66;5142155;27;20057;-93
2023/04/06 10:33:58;;;;;;;5.88;4.13;;;;;;;11.97;40.13;98851.25;5140836;27;20047;-94
2023/04/06 10:36:26;;;;;;;5.60;4.40;;;;;;;11.75;39.83;98837.69;5141228;27;20043;-94
2023/04/06 10:38:58;;;;;;;6.57;4.57;;;;;;;11.75;38.92;98822.56;5139492;27;20038;-94
2023/04/06 10:41:32;;;;;;;5.60;3.85;;;;;;;11.72;40.85;98826.22;5141843;27;20049;-92
2023/04/06 10:43:59;;;;;;;7.18;4.20;;;;;;;11.94;41.67;98828.25;5142501;27;20039;-94
2023/04/06 10:46:27;;;;;;;6.70;4.53;;;;;;;12.30;39.33;98852.84;5141449;27;20079;-95
2023/04/06 10:48:53;;;;;;;5.73;4.30;;;;;;;12.40;38.24;98842.75;5139211;27;20106;-92
2023/04/06 10:51:23;;;;;;;5.90;4.40;;;;;;;12.22;40.34;98851.34;5139116;27;20062;-93
2023/04/06 10:53:50;;;;;;;9.95;5.05;;;;;;;11.36;39.65;98835.31;5139208;27;20038;-94
2023/04/06 10:56:18;;;;;;;7.28;4.43;;;;;;;11.65;41.81;98831.78;5138796;27;20052;-92
2023/04/06 10:58:48;;;;;;;6.25;4.20;;;;;;;11.98;40.16;98839.69;5139149;27;20066;-94
2023/04/06 11:01:15;;;;;;;6.88;4.30;;;;;;;11.61;41.20;98831.00;5135346;27;20042;-95
2023/04/06 11:03:47;;;;;;;6.10;4.63;;;;;;;12.07;38.86;98845.59;5138722;27;20130;-95
2023/04/06 11:06:23;;;;;;;6.10;4.35;;;;;;;12.13;38.06;98832.06;5137530;27;20039;-93
2023/04/06 11:08:50;;;;;;;5.72;4.13;;;;;;;12.28;38.57;98835.16;5138260;27;20054;-93
2023/04/06 11:11:18;;;;;;;6.78;4.28;;;;;;;12.22;39.90;98848.69;5138175;27;20360;-93
2023/04/06 11:13:45;;;;;;;6.75;4.07;;;;;;;12.30;38.60;98854.66;5138992;27;20133;-90
2023/04/06 11:16:15;;;;;;;7.05;4.03;;;;;;;11.88;38.84;98824.00;5139695;27;20133;-93
2023/04/06 11:18:55;;;;;;;6.13;4.30;;;;;;;11.98;39.79;98845.88;5138817;27;20039;-94
2023/04/06 11:21:33;;;;;;;6.38;3.90;;;;;;;12.00;37.92;98841.38;5137955;27;20113;-94
2023/04/06 11:24:06;;;;;;;7.65;4.15;;;;;;;12.15;39.45;98816.03;5134537;27;20042;-94
2023/04/06 11:26:37;;;;;;;6.00;4.07;;;;;;;11.69;39.79;98802.34;5138678;27;20575;-93
2023/04/06 11:29:03;;;;;;;6.90;4.20;;;;;;;12.15;39.66;98816.03;5138414;27;20050;-93
2023/04/06 11:31:29;;;;;;;5.35;3.90;;;;;;;12.42;38.44;98814.22;5137670;27;20046;-92
2023/04/06 11:33:57;;;;;;;5.90;4.10;;;;;;;12.53;37.27;98816.53;5138294;27;20058;-93
2023/04/06 11:36:23;;;;;;;5.93;4.00;;;;;;;12.40;38.08;98829.41;5135723;27;20510;-94